Steep Falls, Maine
Current Conditions -  °F | °C
As of 4:51 AM on Saturday 29 Nov 2014 (Local Time) from KPWM Reporting Station
Few Clouds Few Clouds  
Wind Chill: 15°   Ceiling: Unl
Heat Index: 15°   Visibility: 10mi
Dew Point: 11°   Wind: 0mph
Humidity: 84%   Direction: NA
Pressure: 30.25"   Gusts: NA
Location:  43.79°N, 70.65°W
Report Text: KPWM 290951Z 00000KT 10SM FEW120 M09/M12 A3025 RMK AO2 SLP244 I1000 T10941117
Loading
Personal Weather Stations






























Interactive Weather Map New forecast layout! Learn more

10-Day Weather Forecast

Advertisements
Track Severe Weather on mobile